Soltau, Germany

6:00 AM CEST on July 29, 2015 (GMT +0200)
Heidlandstraße Soltau | | Change Station
CLOSE
Current Station
Personal Weather Station
Location: Soltau, NIEDERSACHSEN
Elevation: 217 ft
Nearby Weather Stations

Elev 217 ft 52.98 °N, 9.85 °E | Updated 44 seconds ago

Scattered Clouds
Scattered Clouds
55.4 °F
Feels Like 55.4 °F
N
0.0
Wind Variable Wind from South
Gusts 0.0 mph

Today
High -- | Low -- °F
--% Chance of Precip.
Yesterday
High -- | Low -- °F
Precip. -- in
5:32 AM 9:20 PM
Waxing Gibbous, 93% visible
Pressure 29.65 in
Visibility 6.2 miles
Clouds Few 3000 ft
Scattered Clouds 8000 ft
Dew Point 48 °F
Humidity 77%
Rainfall -999.00 in
Snow Depth Not available.
UV 0 out of 12
Pollen Not available.
Air Quality Not available.
Flu Activity Not available.
METAR ETHS 290320Z 24009KT 9999 FEW030 SCT080 13/08 Q1004 BLU+BLU TEMPO BLU+

More Conditions Fewer Conditions

Pressure 29.65 in
Visibility 6.2 miles
Clouds Few 3000 ft
Scattered Clouds 8000 ft
Dew Point 48 °F
Humidity 77%
Rainfall -999.00 in
Snow Depth Not available.
UV 0 out of 12
Pollen Not available.
Air Quality Not available.
Flu Activity Not available.
METAR ETHS 290320Z 24009KT 9999 FEW030 SCT080 13/08 Q1004 BLU+BLU TEMPO BLU+

More Conditions Fewer Conditions

10-Day Weather Forecast

×

Almanac

Astronomy

Jul. 29, 2015 Rise Set
Actual Time
Civil Twilight
Nautical Twilight
Astronomical Twilight
Moon
Length of Visible Light
Length of Day
Tomorrow will be .
, % of the Moon is Illuminated

Today's Extremes

Country Highs Country Lows

Community

WunderPhotos

Upload Photos

1,842,039 photos uploaded!

WunderBlogs® & News

Nearby

Air Quality

  Air Quality AQ Index Pollutant
Not available.

Snow Depth

Station Depth Elevation

Earthquake Activity

City Distance Mag. Time & Date
Minimum magnitude displayed is 2.5.

Coastal Water Temperatures

Place Temperature

Stations

Nearby Weather Stations

Station Location Temp. Windchill Dew Point Humidity Wind Precip. Elev Updated Type